Time;durP1;ratioP1;P1;durP2;ratioP2;P2;SDS_P1;SDS_P2;PMS_P1;PMS_P2;Temp;Humidity;BMP_temperature;BMP_pressure;BME280_temperature;BME280_humidity;BME280_pressure;Samples;Min_cycle;Max_cycle;Signal;HPM_P1;HPM_P2
2021/11/23 00:00:56;;;;;;;;;;;;;;;2.93;99.62;100784.35;1769210;80;21917;-76
2021/11/23 00:03:21;;;;;;;;;;;;;;;2.95;99.68;100786.39;1763047;80;20163;-79
2021/11/23 00:05:49;;;;;;;;;;;;;;;2.98;99.58;100791.43;1761423;80;20217;-80
2021/11/23 00:08:15;;;;;;;;;;;;;;;3.03;99.46;100793.29;1736998;80;20222;-80
2021/11/23 00:10:42;;;;;;;;;;;;;;;2.98;99.13;100791.43;1764055;80;20246;-80
2021/11/23 00:13:09;;;;;;;;;;;;;;;3.00;99.37;100788.28;1762946;80;22063;-81
2021/11/23 00:15:35;;;;;;;;;;;;;;;2.66;100.00;100791.57;1758690;79;20475;-79
2021/11/23 00:18:03;;;;;;;;;;;;;;;2.91;100.00;100788.83;1758176;80;20100;-80
2021/11/23 00:20:29;;;;;;;;;;;;;;;2.64;100.00;100794.27;1760222;80;20158;-81
2021/11/23 00:22:54;;;;;;;;;;;;;;;3.02;100.00;100790.33;1764838;80;20163;-81
2021/11/23 00:25:20;;;;;;;;;;;;;;;3.13;99.86;100790.52;1762478;80;21359;-81
2021/11/23 00:27:46;;;;;;;;;;;;;;;3.00;100.00;100791.72;1762805;80;20387;-81
2021/11/23 00:30:11;;;;;;;;;;;;;;;3.03;100.00;100791.98;1758903;80;20161;-81
2021/11/23 00:32:37;;;;;;;;;;;;;;;3.06;100.00;100787.89;1757153;80;20135;-81
2021/11/23 00:35:03;;;;;;;;;;;;;;;3.06;100.00;100800.94;1764186;80;20155;-80
2021/11/23 00:37:29;;;;;;;;;;;;;;;3.05;100.00;100801.88;1763330;80;21089;-80
2021/11/23 00:39:56;;;;;;;;;;;;;;;2.93;100.00;100792.17;1762870;80;20165;-81
2021/11/23 00:42:22;;;;;;;;;;;;;;;2.91;100.00;100794.88;1728864;80;20132;-80
2021/11/23 00:44:47;;;;;;;;;;;;;;;2.82;100.00;100785.81;1762848;80;20487;-80
2021/11/23 00:47:13;;;;;;;;;;;;;;;2.85;100.00;100790.85;1765753;80;20182;-79
2021/11/23 00:49:39;;;;;;;;;;;;;;;2.84;100.00;100802.23;1758991;80;21919;-80
2021/11/23 00:52:05;;;;;;;;;;;;;;;2.82;100.00;100798.86;1755481;80;20273;-80
2021/11/23 00:54:30;;;;;;;;;;;;;;;2.94;100.00;100806.91;1760194;80;20250;-80
2021/11/23 00:56:56;;;;;;;;;;;;;;;2.97;100.00;100804.13;1763986;80;20451;-79
2021/11/23 00:59:22;;;;;;;;;;;;;;;2.97;100.00;100801.52;1765189;80;20135;-80
2021/11/23 01:01:47;;;;;;;;;;;;;;;2.93;100.00;100815.66;1754630;80;21200;-79
2021/11/23 01:04:13;;;;;;;;;;;;;;;2.77;100.00;100811.34;1759556;80;20192;-79
2021/11/23 01:06:38;;;;;;;;;;;;;;;2.76;100.00;100805.73;1761896;80;20697;-80
2021/11/23 01:09:04;;;;;;;;;;;;;;;2.74;100.00;100801.08;1763241;80;20192;-79
2021/11/23 01:11:29;;;;;;;;;;;;;;;2.80;100.00;100800.72;1757316;80;20622;-80
2021/11/23 01:13:55;;;;;;;;;;;;;;;2.74;100.00;100802.86;1760596;80;21200;-79
2021/11/23 01:16:21;;;;;;;;;;;;;;;2.73;100.00;100798.09;1760581;80;20439;-79
2021/11/23 01:18:47;;;;;;;;;;;;;;;2.79;100.00;100785.99;1781310;80;20593;-81
2021/11/23 01:21:14;;;;;;;;;;;;;;;2.41;100.00;100792.98;1774075;80;20173;-82
2021/11/23 01:23:40;;;;;;;;;;;;;;;2.40;100.00;100787.38;1746871;80;20172;-80
2021/11/23 01:26:05;;;;;;;;;;;;;;;2.60;100.00;100782.80;1763725;81;21131;-80
2021/11/23 01:28:32;;;;;;;;;;;;;;;2.77;100.00;100777.43;1766384;80;20700;-80
2021/11/23 01:30:57;;;;;;;;;;;;;;;2.72;100.00;100769.05;1764799;80;20122;-80
2021/11/23 01:33:23;;;;;;;;;;;;;;;2.76;100.00;100774.91;1761805;80;20137;-80
2021/11/23 01:35:48;;;;;;;;;;;;;;;2.78;100.00;100768.69;1761935;80;20157;-81
2021/11/23 01:38:15;;;;;;;;;;;;;;;2.80;100.00;100772.03;1761255;80;21222;-79
2021/11/23 01:40:41;;;;;;;;;;;;;;;2.90;100.00;100774.09;1753327;80;20569;-81
2021/11/23 01:43:07;;;;;;;;;;;;;;;2.85;100.00;100775.20;1761167;80;20173;-79
2021/11/23 01:45:37;;;;;;;;;;;;;;;2.87;100.00;100778.58;1764098;80;20129;-80
2021/11/23 01:48:03;;;;;;;;;;;;;;;2.81;100.00;100768.51;1758410;80;20110;-77
2021/11/23 01:50:29;;;;;;;;;;;;;;;3.01;100.00;100771.68;1762898;80;21327;-79
2021/11/23 01:52:56;;;;;;;;;;;;;;;3.04;100.00;100774.10;1767579;80;20133;-79
2021/11/23 01:55:22;;;;;;;;;;;;;;;3.15;100.00;100770.38;1766787;80;20152;-79
2021/11/23 01:57:48;;;;;;;;;;;;;;;2.88;100.00;100780.23;1763498;80;20115;-79
2021/11/23 02:00:14;;;;;;;;;;;;;;;2.70;100.00;100776.10;1759596;80;20147;-79
2021/11/23 02:02:39;;;;;;;;;;;;;;;2.62;100.00;100780.94;1768541;80;20985;-79
2021/11/23 02:05:06;;;;;;;;;;;;;;;2.61;100.00;100785.77;1761217;80;20165;-79
2021/11/23 02:07:32;;;;;;;;;;;;;;;2.75;100.00;100779.30;1764101;80;20154;-78
2021/11/23 02:09:57;;;;;;;;;;;;;;;2.84;100.00;100791.80;1754477;80;20136;-79
2021/11/23 02:12:23;;;;;;;;;;;;;;;2.80;100.00;100792.90;1756663;80;20163;-79
2021/11/23 02:14:49;;;;;;;;;;;;;;;2.80;100.00;100802.50;1760938;80;21067;-81
2021/11/23 02:17:14;;;;;;;;;;;;;;;2.78;100.00;100810.42;1749510;80;20122;-78
2021/11/23 02:19:45;;;;;;;;;;;;;;;2.77;100.00;100818.33;1764597;80;20255;-80
2021/11/23 02:22:10;;;;;;;;;;;;;;;2.62;100.00;100813.53;1756375;80;20210;-78
2021/11/23 02:24:36;;;;;;;;;;;;;;;2.30;100.00;100814.89;1760417;80;20530;-78
2021/11/23 02:27:02;;;;;;;;;;;;;;;2.34;100.00;100809.89;1762775;80;20994;-78
2021/11/23 02:29:27;;;;;;;;;;;;;;;2.15;100.00;100812.22;1754964;80;20538;-78
2021/11/23 02:31:53;;;;;;;;;;;;;;;2.23;100.00;100812.27;1761484;80;20155;-78
2021/11/23 02:34:18;;;;;;;;;;;;;;;2.10;100.00;100816.86;1761757;80;21073;-78
2021/11/23 02:36:44;;;;;;;;;;;;;;;2.12;100.00;100811.56;1763694;80;20169;-78
2021/11/23 02:39:09;;;;;;;;;;;;;;;2.12;100.00;100818.91;1765575;80;21300;-79
2021/11/23 02:41:38;;;;;;;;;;;;;;;2.11;100.00;100815.94;1763691;80;20396;-79
2021/11/23 02:44:03;;;;;;;;;;;;;;;1.89;100.00;100827.15;1764477;80;20177;-78
2021/11/23 02:46:29;;;;;;;;;;;;;;;1.88;100.00;100824.16;1767716;80;20169;-78
2021/11/23 02:48:55;;;;;;;;;;;;;;;2.04;100.00;100819.80;1765963;80;20141;-78
2021/11/23 02:51:20;;;;;;;;;;;;;;;2.21;100.00;100821.47;1767221;80;21199;-78
2021/11/23 02:53:47;;;;;;;;;;;;;;;1.90;100.00;100836.66;1759953;80;20253;-79
2021/11/23 02:56:13;;;;;;;;;;;;;;;1.75;100.00;100826.13;1757267;80;20491;-78
2021/11/23 02:58:40;;;;;;;;;;;;;;;1.51;100.00;100814.41;1748641;81;20186;-79
2021/11/23 03:01:07;;;;;;;;;;;;;;;1.43;100.00;100841.70;1747953;81;20222;-80
2021/11/23 03:03:32;;;;;;;;;;;;;;;1.70;100.00;100821.64;1748684;81;21122;-81
2021/11/23 03:05:58;;;;;;;;;;;;;;;1.78;100.00;100824.66;1749975;81;20358;-79
2021/11/23 03:08:24;;;;;;;;;;;;;;;1.88;100.00;100804.19;1754196;81;20217;-79
2021/11/23 03:10:50;;;;;;;;;;;;;;;1.94;100.00;100798.64;1755124;81;20142;-79
2021/11/23 03:13:16;;;;;;;;;;;;;;;2.11;100.00;100789.03;1752330;81;20181;-80
2021/11/23 03:15:41;;;;;;;;;;;;;;;2.22;100.00;100782.77;1754523;81;21335;-79
2021/11/23 03:18:09;;;;;;;;;;;;;;;2.08;100.00;100797.88;1750321;81;20205;-79
2021/11/23 03:20:36;;;;;;;;;;;;;;;2.24;100.00;100787.90;1750600;81;20145;-80
2021/11/23 03:23:02;;;;;;;;;;;;;;;2.25;100.00;100783.05;1749810;81;20193;-79
2021/11/23 03:25:27;;;;;;;;;;;;;;;1.83;100.00;100779.31;1751790;81;20169;-80
2021/11/23 03:27:53;;;;;;;;;;;;;;;1.76;100.00;100764.02;1749613;81;21841;-79
2021/11/23 03:30:23;;;;;;;;;;;;;;;1.86;100.00;100779.14;1744734;81;20196;-79
2021/11/23 03:32:49;;;;;;;;;;;;;;;1.85;100.00;100769.64;1748466;81;20154;-79
2021/11/23 03:35:15;;;;;;;;;;;;;;;1.81;100.00;100765.55;1748156;81;20155;-80
2021/11/23 03:37:41;;;;;;;;;;;;;;;2.24;100.00;100767.88;1752334;80;20198;-77
2021/11/23 03:40:07;;;;;;;;;;;;;;;2.39;100.00;100767.45;1750283;81;21072;-80
2021/11/23 03:42:33;;;;;;;;;;;;;;;2.11;100.00;100774.26;1753116;81;20142;-79
2021/11/23 03:44:58;;;;;;;;;;;;;;;2.21;100.00;100776.34;1752486;81;20141;-80
2021/11/23 03:47:25;;;;;;;;;;;;;;;2.33;100.00;100779.53;1755714;81;20394;-79
2021/11/23 03:49:50;;;;;;;;;;;;;;;2.09;100.00;100769.58;1752879;81;20146;-79
2021/11/23 03:52:17;;;;;;;;;;;;;;;2.07;100.00;100758.41;1753647;81;21150;-80
2021/11/23 03:54:42;;;;;;;;;;;;;;;2.15;100.00;100762.72;1760006;81;20117;-80
2021/11/23 03:57:08;;;;;;;;;;;;;;;2.35;100.00;100764.66;1757565;79;20492;-79
2021/11/23 03:59:34;;;;;;;;;;;;;;;2.48;100.00;100756.49;1754466;80;20397;-79
2021/11/23 04:01:59;;;;;;;;;;;;;;;2.48;100.00;100756.49;1751751;80;21675;-79
2021/11/23 04:04:25;;;;;;;;;;;;;;;2.60;100.00;100746.30;1756489;80;21180;-79
2021/11/23 04:06:50;;;;;;;;;;;;;;;2.29;100.00;100745.47;1769489;80;20325;-80
2021/11/23 04:09:16;;;;;;;;;;;;;;;2.61;100.00;100750.13;1765811;80;20151;-80
2021/11/23 04:11:42;;;;;;;;;;;;;;;2.51;100.00;100744.59;1758792;80;20230;-80
2021/11/23 04:14:07;;;;;;;;;;;;;;;2.24;100.00;100750.12;1760874;80;20177;-80
2021/11/23 04:16:33;;;;;;;;;;;;;;;2.21;100.00;100758.11;1762767;80;21171;-80
2021/11/23 04:18:58;;;;;;;;;;;;;;;2.27;100.00;100762.94;1757269;80;20167;-80
2021/11/23 04:21:24;;;;;;;;;;;;;;;2.20;100.00;100766.84;1768854;80;20142;-80
2021/11/23 04:23:49;;;;;;;;;;;;;;;2.22;100.00;100748.04;1759224;80;20144;-79
2021/11/23 04:26:15;;;;;;;;;;;;;;;2.34;100.00;100750.77;1763674;80;20177;-81
2021/11/23 04:28:41;;;;;;;;;;;;;;;2.50;100.00;100748.14;1763477;80;21146;-81
2021/11/23 04:31:06;;;;;;;;;;;;;;;2.56;100.00;100742.19;1761126;80;20480;-81
2021/11/23 04:33:32;;;;;;;;;;;;;;;2.31;100.00;100734.48;1758983;80;20165;-80
2021/11/23 04:35:58;;;;;;;;;;;;;;;2.20;100.00;100750.73;1759334;80;20796;-81
2021/11/23 04:38:23;;;;;;;;;;;;;;;2.54;100.00;100739.66;1763912;80;20195;-80
2021/11/23 04:40:49;;;;;;;;;;;;;;;2.48;100.00;100738.24;1765699;80;21193;-80
2021/11/23 04:43:14;;;;;;;;;;;;;;;2.50;100.00;100732.50;1764442;80;20436;-81
2021/11/23 04:45:40;;;;;;;;;;;;;;;2.55;100.00;100724.85;1764165;80;20122;-80
2021/11/23 04:48:06;;;;;;;;;;;;;;;2.65;100.00;100718.17;1762468;80;20236;-80
2021/11/23 04:50:32;;;;;;;;;;;;;;;2.71;100.00;100722.20;1768650;80;20463;-80
2021/11/23 04:52:57;;;;;;;;;;;;;;;2.79;100.00;100720.79;1760148;80;22486;-80
2021/11/23 04:55:23;;;;;;;;;;;;;;;2.81;99.96;100726.78;1758929;80;20119;-80
2021/11/23 04:57:49;;;;;;;;;;;;;;;2.81;99.60;100729.38;1755740;80;20204;-81
2021/11/23 05:00:17;;;;;;;;;;;;;;;2.79;99.27;100723.40;1763820;80;20121;-80
2021/11/23 05:02:42;;;;;;;;;;;;;;;2.98;97.88;100714.47;1760759;80;20139;-81
2021/11/23 05:05:08;;;;;;;;;;;;;;;2.85;97.47;100724.34;1763854;80;21874;-79
2021/11/23 05:07:34;;;;;;;;;;;;;;;2.79;97.82;100727.78;1762613;80;20915;-80
2021/11/23 05:10:00;;;;;;;;;;;;;;;2.55;99.30;100730.92;1759619;80;20267;-80
2021/11/23 05:12:25;;;;;;;;;;;;;;;2.54;99.36;100719.28;1763659;79;20166;-80
2021/11/23 05:14:51;;;;;;;;;;;;;;;2.50;99.06;100715.55;1771131;80;20607;-79
2021/11/23 05:17:17;;;;;;;;;;;;;;;2.86;97.86;100710.84;1759417;80;21163;-81
2021/11/23 05:19:43;;;;;;;;;;;;;;;2.94;96.77;100715.61;1762895;80;20122;-80
2021/11/23 05:22:08;;;;;;;;;;;;;;;2.85;96.12;100713.91;1762035;79;20125;-82
2021/11/23 05:24:34;;;;;;;;;;;;;;;2.84;96.02;100707.03;1762027;80;20147;-81
2021/11/23 05:27:00;;;;;;;;;;;;;;;2.99;95.82;100695.28;1760409;80;20278;-80
2021/11/23 05:29:26;;;;;;;;;;;;;;;2.60;95.71;100701.98;1769834;80;20991;-81
2021/11/23 05:31:52;;;;;;;;;;;;;;;2.53;95.68;100706.69;1753671;80;20393;-81
2021/11/23 05:34:17;;;;;;;;;;;;;;;2.46;95.44;100697.58;1764821;80;20480;-80
2021/11/23 05:36:44;;;;;;;;;;;;;;;2.51;95.31;100708.09;1759891;79;20130;-80
2021/11/23 05:39:10;;;;;;;;;;;;;;;2.73;94.44;100705.52;1765297;80;20126;-82
2021/11/23 05:41:36;;;;;;;;;;;;;;;2.58;93.59;100689.47;1770158;80;21242;-80
2021/11/23 05:44:01;;;;;;;;;;;;;;;2.55;93.51;100694.87;1762758;80;20820;-81
2021/11/23 05:46:27;;;;;;;;;;;;;;;2.74;92.06;100690.25;1757599;80;20224;-81
2021/11/23 05:48:53;;;;;;;;;;;;;;;2.76;91.75;100690.98;1766146;80;20579;-81
2021/11/23 05:51:19;;;;;;;;;;;;;;;2.74;91.10;100688.94;1768500;80;20122;-82
2021/11/23 05:53:44;;;;;;;;;;;;;;;2.76;90.78;100681.86;1759658;80;21772;-81
2021/11/23 05:56:10;;;;;;;;;;;;;;;2.66;90.65;100675.53;1758439;80;20169;-81
2021/11/23 05:58:36;;;;;;;;;;;;;;;2.47;92.39;100681.84;1761646;80;20152;-81
2021/11/23 06:01:03;;;;;;;;;;;;;;;2.44;91.87;100678.12;1762285;80;20221;-83
2021/11/23 06:03:28;;;;;;;;;;;;;;;2.29;92.49;100675.11;1758405;80;20265;-81
2021/11/23 06:05:54;;;;;;;;;;;;;;;2.36;92.36;100676.41;1764083;80;21080;-81
2021/11/23 06:08:19;;;;;;;;;;;;;;;2.38;92.12;100673.27;1764634;80;20486;-81
2021/11/23 06:10:45;;;;;;;;;;;;;;;2.29;91.78;100675.11;1762408;80;20151;-80
2021/11/23 06:13:11;;;;;;;;;;;;;;;2.31;91.90;100685.80;1759236;80;20151;-80
2021/11/23 06:15:38;;;;;;;;;;;;;;;2.59;91.21;100687.25;1760902;80;20192;-81
2021/11/23 06:18:06;;;;;;;;;;;;;;;2.66;90.01;100692.48;1764363;80;21211;-81
2021/11/23 06:20:32;;;;;;;;;;;;;;;2.58;89.40;100688.17;1761512;80;20124;-81
2021/11/23 06:23:00;;;;;;;;;;;;;;;2.51;89.13;100681.19;1762978;80;20172;-81
2021/11/23 06:25:26;;;;;;;;;;;;;;;2.50;89.73;100685.58;1763687;80;20638;-82
2021/11/23 06:27:51;;;;;;;;;;;;;;;2.43;89.56;100681.64;1764381;80;20185;-80
2021/11/23 06:30:17;;;;;;;;;;;;;;;2.37;89.75;100698.95;1765691;80;21113;-80
2021/11/23 06:32:42;;;;;;;;;;;;;;;2.64;89.13;100686.50;1761889;80;21159;-78
2021/11/23 06:35:08;;;;;;;;;;;;;;;2.63;89.32;100693.97;1763366;80;20244;-81
2021/11/23 06:37:34;;;;;;;;;;;;;;;2.64;90.43;100689.97;1756063;80;20137;-79
2021/11/23 06:39:59;;;;;;;;;;;;;;;2.69;90.78;100684.00;1761143;79;20146;-79
2021/11/23 06:42:25;;;;;;;;;;;;;;;2.59;91.79;100676.83;1758583;80;21184;-82
2021/11/23 06:44:50;;;;;;;;;;;;;;;2.63;92.68;100661.38;1757741;80;20166;-81
2021/11/23 06:47:16;;;;;;;;;;;;;;;2.57;93.47;100663.87;1760272;80;21292;-80
2021/11/23 06:49:42;;;;;;;;;;;;;;;2.55;94.25;100650.11;1763698;80;20192;-82
2021/11/23 06:52:07;;;;;;;;;;;;;;;2.57;94.15;100639.59;1761746;80;20208;-81
2021/11/23 06:54:33;;;;;;;;;;;;;;;2.56;94.77;100643.11;1766476;80;21026;-82
2021/11/23 06:56:59;;;;;;;;;;;;;;;2.71;94.61;100640.05;1767740;80;20917;-81
2021/11/23 06:59:24;;;;;;;;;;;;;;;2.77;93.82;100633.99;1763880;80;20125;-82
2021/11/23 07:01:50;;;;;;;;;;;;;;;2.86;94.23;100628.21;1757829;80;20182;-81
2021/11/23 07:04:16;;;;;;;;;;;;;;;2.90;93.72;100622.80;1758443;80;20270;-81
2021/11/23 07:06:44;;;;;;;;;;;;;;;2.95;93.56;100619.44;1765292;80;21040;-81
2021/11/23 07:09:10;;;;;;;;;;;;;;;2.84;93.72;100627.48;1761463;80;20153;-80
2021/11/23 07:11:35;;;;;;;;;;;;;;;3.01;93.20;100619.87;1758479;80;20121;-80
2021/11/23 07:14:05;;;;;;;;;;;;;;;2.84;92.92;100625.31;1765300;80;20446;-81
2021/11/23 07:16:28;;;;;;;;;;;;;;;3.03;91.97;100617.17;1762521;80;20548;-81
2021/11/23 07:18:55;;;;;;;;;;;;;;;3.15;92.05;100603.84;1764829;80;21100;-83
2021/11/23 07:21:21;;;;;;;;;;;;;;;2.93;91.17;100610.40;1756552;80;20209;-81
2021/11/23 07:23:47;;;;;;;;;;;;;;;2.75;92.71;100603.27;1757308;80;20483;-81
2021/11/23 07:26:12;;;;;;;;;;;;;;;2.66;92.15;100598.61;1754994;80;20133;-80
2021/11/23 07:28:38;;;;;;;;;;;;;;;2.73;91.97;100609.02;1765934;80;20507;-82
2021/11/23 07:31:03;;;;;;;;;;;;;;;3.07;90.84;100619.15;1758787;80;21349;-81
2021/11/23 07:33:29;;;;;;;;;;;;;;;3.24;90.02;100603.25;1759503;80;20145;-79
2021/11/23 07:35:54;;;;;;;;;;;;;;;2.83;91.35;100607.53;1763048;80;20137;-82
2021/11/23 07:38:20;;;;;;;;;;;;;;;2.76;91.62;100615.35;1764236;80;20112;-81
2021/11/23 07:40:46;;;;;;;;;;;;;;;3.13;90.60;100605.72;1753999;80;20113;-79
2021/11/23 07:43:12;;;;;;;;;;;;;;;2.99;90.95;100588.31;1766420;80;21102;-80
2021/11/23 07:45:39;;;;;;;;;;;;;;;3.13;90.57;100585.66;1761186;80;20228;-82
2021/11/23 07:48:05;;;;;;;;;;;;;;;3.17;90.88;100597.59;1755354;80;20166;-83
2021/11/23 07:50:30;;;;;;;;;;;;;;;3.12;91.39;100580.55;1757332;80;20116;-80
2021/11/23 07:52:56;;;;;;;;;;;;;;;3.12;91.12;100590.98;1759765;80;20487;-82
2021/11/23 07:55:22;;;;;;;;;;;;;;;3.19;91.32;100587.89;1759619;80;21144;-83
2021/11/23 07:57:47;;;;;;;;;;;;;;;3.03;91.80;100605.44;1762089;80;20376;-82
2021/11/23 08:00:13;;;;;;;;;;;;;;;3.10;91.93;100581.95;1756343;80;20167;-83
2021/11/23 08:02:39;;;;;;;;;;;;;;;3.11;92.32;100578.41;1752871;79;20432;-82
2021/11/23 08:05:05;;;;;;;;;;;;;;;3.20;91.63;100571.30;1760301;80;20147;-82
2021/11/23 08:07:30;;;;;;;;;;;;;;;3.21;92.07;100575.56;1752849;80;21094;-81
2021/11/23 08:09:56;;;;;;;;;;;;;;;3.30;91.90;100575.94;1757273;80;20116;-84
2021/11/23 08:12:22;;;;;;;;;;;;;;;3.13;92.52;100575.23;1759709;80;20482;-83
2021/11/23 08:14:47;;;;;;;;;;;;;;;3.30;92.47;100572.84;1761218;80;20114;-81
2021/11/23 08:17:13;;;;;;;;;;;;;;;3.30;93.19;100588.98;1758174;80;20184;-81
2021/11/23 08:19:39;;;;;;;;;;;;;;;3.29;94.08;100580.77;1757924;80;20826;-82
2021/11/23 08:22:04;;;;;;;;;;;;;;;3.25;95.07;100585.36;1750498;80;20230;-80
2021/11/23 08:24:30;;;;;;;;;;;;;;;3.34;95.61;100576.08;1755781;80;21292;-80
2021/11/23 08:26:56;;;;;;;;;;;;;;;3.19;96.30;100587.89;1768352;79;20160;-85
2021/11/23 08:29:22;;;;;;;;;;;;;;;3.29;97.81;100589.91;1751016;80;20208;-81
2021/11/23 08:31:49;;;;;;;;;;;;;;;3.32;98.43;100614.52;1776801;78;21102;-80
2021/11/23 08:34:15;;;;;;;;;;;;;;;3.28;98.60;100604.74;1775389;79;20159;-81
2021/11/23 08:36:41;;;;;;;;;;;;;;;3.12;99.86;100620.52;1763872;80;20108;-83
2021/11/23 08:39:07;;;;;;;;;;;;;;;3.24;99.15;100607.16;1746948;80;20623;-83
2021/11/23 08:41:32;;;;;;;;;;;;;;;3.19;99.38;100608.77;1745260;79;20196;-82
2021/11/23 08:43:58;;;;;;;;;;;;;;;3.31;99.93;100612.83;1743565;79;21731;-80
2021/11/23 08:46:24;;;;;;;;;;;;;;;3.29;99.84;100624.67;1744394;79;20193;-82
2021/11/23 08:48:50;;;;;;;;;;;;;;;2.99;100.00;100609.19;1745263;79;20300;-80
2021/11/23 08:51:22;;;;;;;;;;;;;;;3.15;100.00;100607.27;1747683;79;20481;-84
2021/11/23 08:53:43;;;;;;;;;;;;;;;3.23;100.00;100605.03;1751834;78;20645;-80
2021/11/23 08:56:09;;;;;;;;;;;;;;;3.26;100.00;100607.89;1749764;79;21106;-80
2021/11/23 08:58:36;;;;;;;;;;;;;;;2.97;100.00;100598.02;1757609;79;20173;-80
2021/11/23 09:01:01;;;;;;;;;;;;;;;2.95;100.00;100612.91;1757843;79;20148;-80
2021/11/23 09:03:27;;;;;;;;;;;;;;;3.21;100.00;100619.94;1757189;79;20150;-79
2021/11/23 09:05:53;;;;;;;;;;;;;;;3.12;100.00;100617.91;1762036;79;20333;-82
2021/11/23 09:08:18;;;;;;;;;;;;;;;3.04;100.00;100607.12;1745246;81;22004;-79
2021/11/23 09:10:44;;;;;;;;;;;;;;;3.04;100.00;100625.38;1765972;80;20177;-79
2021/11/23 09:13:10;;;;;;;;;;;;;;;2.98;100.00;100625.77;1759193;80;20140;-79
2021/11/23 09:15:37;;;;;;;;;;;;;;;3.04;100.00;100622.77;1755757;80;20215;-78
2021/11/23 09:18:03;;;;;;;;;;;;;;;3.04;100.00;100622.77;1762133;80;20195;-81
2021/11/23 09:20:36;;;;;;;;;;;;;;;2.90;100.00;100651.02;1754697;80;22009;-79
2021/11/23 09:23:07;;;;;;;;;;;;;;;3.08;100.00;100619.05;1763794;80;20160;-81
2021/11/23 09:25:33;;;;;;;;;;;;;;;3.11;100.00;100616.25;1759737;80;20123;-81
2021/11/23 09:28:00;;;;;;;;;;;;;;;2.98;100.00;100612.72;1766537;80;20234;-79
2021/11/23 09:30:26;;;;;;;;;;;;;;;3.06;100.00;100620.90;1763426;80;20461;-79
2021/11/23 09:32:52;;;;;;;;;;;;;;;3.03;100.00;100601.52;1765141;80;21066;-83
2021/11/23 09:35:19;;;;;;;;;;;;;;;3.00;100.00;100615.62;1760584;80;21013;-81
2021/11/23 09:37:45;;;;;;;;;;;;;;;3.14;100.00;100621.28;1769137;80;20171;-81
2021/11/23 09:40:10;;;;;;;;;;;;;;;3.10;100.00;100630.22;1760016;80;20576;-81
2021/11/23 09:42:36;;;;;;;;;;;;;;;3.02;100.00;100624.66;1757880;80;20179;-82
2021/11/23 09:45:04;;;;;;;;;;;;;;;3.04;100.00;100628.82;1757096;80;21028;-81
2021/11/23 09:47:30;;;;;;;;;;;;;;;3.14;100.00;100617.36;1763540;80;20134;-81
2021/11/23 09:49:59;;;;;;;;;;;;;;;3.14;100.00;100617.80;1760745;80;20498;-81
2021/11/23 09:52:24;;;;;;;;;;;;;;;3.06;100.00;100618.28;1761300;80;20221;-84
2021/11/23 09:54:50;;;;;;;;;;;;;;;3.07;100.00;100612.14;1753508;79;20171;-82
2021/11/23 09:57:16;;;;;;;;;;;;;;;3.02;100.00;100611.61;1754799;79;21164;-82
2021/11/23 09:59:42;;;;;;;;;;;;;;;3.00;100.00;100606.96;1752648;80;20257;-82
2021/11/23 10:02:08;;;;;;;;;;;;;;;3.05;100.00;100606.20;1753892;80;20195;-83
2021/11/23 10:04:36;;;;;;;;;;;;;;;3.04;100.00;100604.51;1745727;80;20269;-83
2021/11/23 10:07:06;;;;;;;;;;;;;;;3.00;100.00;100600.44;1743881;80;20197;-82
2021/11/23 10:09:39;;;;;;;;;;;;;;;3.06;100.00;100602.63;1753380;80;21137;-81
2021/11/23 10:12:15;;;;;;;;;;;;;;;3.09;100.00;100610.27;1754190;80;21096;-80
2021/11/23 10:14:44;;;;;;;;;;;;;;;3.22;100.00;100598.13;1745213;80;20559;-84
2021/11/23 10:17:24;;;;;;;;;;;;;;;3.12;100.00;100597.03;1731379;81;20147;-81
2021/11/23 10:19:50;;;;;;;;;;;;;;;3.04;100.00;100613.16;1737599;81;20193;-83
2021/11/23 10:22:33;;;;;;;;;;;;;;;3.14;100.00;100592.57;1710442;81;40329;-84
2021/11/23 10:25:06;;;;;;;;;;;;;;;3.32;100.00;100608.81;1734393;81;20210;-83
2021/11/23 10:27:34;;;;;;;;;;;;;;;3.27;100.00;100612.67;1735390;81;20202;-81
2021/11/23 10:30:00;;;;;;;;;;;;;;;3.24;100.00;100618.91;1733293;81;20251;-81
2021/11/23 10:32:27;;;;;;;;;;;;;;;3.12;100.00;100612.69;1733982;81;20459;-80
2021/11/23 10:34:53;;;;;;;;;;;;;;;3.18;100.00;100609.69;1734107;81;21096;-80
2021/11/23 10:37:29;;;;;;;;;;;;;;;3.23;100.00;100610.25;1735945;80;20459;-79
2021/11/23 10:39:55;;;;;;;;;;;;;;;3.04;100.00;100614.47;1745706;80;20202;-80
2021/11/23 10:42:24;;;;;;;;;;;;;;;3.14;100.00;100617.80;1735669;80;20122;-81
2021/11/23 10:44:53;;;;;;;;;;;;;;;3.02;100.00;100606.39;1723690;81;20496;-81
2021/11/23 10:47:19;;;;;;;;;;;;;;;3.01;100.00;100619.87;1741490;81;21875;-82
2021/11/23 10:49:46;;;;;;;;;;;;;;;3.05;100.00;100634.89;1733934;81;20126;-82
2021/11/23 10:52:27;;;;;;;;;;;;;;;3.02;100.00;100623.34;1736971;81;20184;-79
2021/11/23 10:54:53;;;;;;;;;;;;;;;3.13;100.00;100625.28;1739787;81;20194;-80
2021/11/23 10:57:18;;;;;;;;;;;;;;;3.03;100.00;100628.91;1741197;80;20758;-78
2021/11/23 10:59:44;;;;;;;;;;;;;;;3.09;100.00;100622.48;1735052;80;21153;-81
2021/11/23 11:02:09;;;;;;;;;;;;;;;3.16;100.00;100620.70;1750971;80;20490;-81
2021/11/23 11:04:39;;;;;;;;;;;;;;;3.17;100.00;100621.08;1746574;81;20142;-81
2021/11/23 11:07:05;;;;;;;;;;;;;;;3.14;100.00;100638.23;1747958;81;20149;-80
2021/11/23 11:09:31;;;;;;;;;;;;;;;3.10;100.00;100635.44;1748052;81;20164;-80
2021/11/23 11:11:57;;;;;;;;;;;;;;;3.07;100.00;100617.36;1742234;81;21957;-81
2021/11/23 11:14:25;;;;;;;;;;;;;;;3.10;100.00;100637.22;1739493;81;20152;-80
2021/11/23 11:16:50;;;;;;;;;;;;;;;3.07;100.00;100639.55;1753908;80;20350;-83
2021/11/23 11:19:16;;;;;;;;;;;;;;;2.98;100.00;100642.72;1752157;81;20451;-81
2021/11/23 11:21:48;;;;;;;;;;;;;;;2.96;100.00;100625.03;1752076;81;20205;-81
2021/11/23 11:27:13;;;;;;;;;;;;;;;3.15;100.00;100650.33;1747383;81;20508;-80
2021/11/23 11:29:42;;;;;;;;;;;;;;;3.15;100.00;100633.37;1741559;81;20152;-80
2021/11/23 11:32:30;;;;;;;;;;;;;;;3.17;100.00;100632.83;1748657;81;20141;-81
2021/11/23 11:34:55;;;;;;;;;;;;;;;3.26;100.00;100636.61;1748548;81;20162;-81
2021/11/23 11:37:21;;;;;;;;;;;;;;;3.10;100.00;100635.91;1745805;81;21352;-80
2021/11/23 11:39:52;;;;;;;;;;;;;;;3.13;100.00;100643.08;1726537;81;20165;-81
2021/11/23 11:42:25;;;;;;;;;;;;;;;3.23;100.00;100662.45;1744737;81;20474;-80
2021/11/23 11:44:53;;;;;;;;;;;;;;;3.06;100.00;100641.77;1770213;80;20215;-82
2021/11/23 11:47:31;;;;;;;;;;;;;;;3.20;100.00;100644.82;1734979;81;20199;-82
2021/11/23 11:50:02;;;;;;;;;;;;;;;3.14;100.00;100646.06;1730505;82;21811;-83
2021/11/23 11:52:29;;;;;;;;;;;;;;;3.22;100.00;100655.55;1742918;80;20148;-80
2021/11/23 11:55:22;;;;;;;;;;;;;;;3.57;100.00;100643.80;1748540;80;20122;-83
2021/11/23 11:57:52;;;;;;;;;;;;;;;3.42;100.00;100652.16;1755691;79;20147;-80
2021/11/23 12:00:34;;;;;;;;;;;;;;;3.27;100.00;100664.88;1760355;79;20168;-78
2021/11/23 12:03:15;;;;;;;;;;;;;;;3.41;100.00;100643.95;1783594;80;21951;-79
2021/11/23 12:05:56;;;;;;;;;;;;;;;3.40;100.00;100654.01;1762180;80;20215;-81
2021/11/23 12:08:35;;;;;;;;;;;;;;;3.34;100.00;100650.48;1754847;81;20153;-82
2021/11/23 12:11:08;;;;;;;;;;;;;;;3.47;100.00;100648.77;1785462;80;20167;-81
2021/11/23 12:13:53;;;;;;;;;;;;;;;3.46;100.00;100660.14;1756642;80;20305;-82
2021/11/23 12:16:29;;;;;;;;;;;;;;;3.48;100.00;100662.21;1758651;81;21917;-81
2021/11/23 12:19:13;;;;;;;;;;;;;;;3.44;100.00;100667.25;1740612;80;20087;-82
2021/11/23 12:21:52;;;;;;;;;;;;;;;3.40;100.00;100677.50;1758750;80;20323;-81
2021/11/23 12:24:21;;;;;;;;;;;;;;;3.45;100.00;100661.09;1743416;80;20246;-82
2021/11/23 12:26:53;;;;;;;;;;;;;;;3.56;100.00;100661.25;1755386;81;20235;-81
2021/11/23 12:29:16;;;;;;;;;;;;;;;3.52;100.00;100667.59;1753238;80;20542;-80
2021/11/23 12:31:47;;;;;;;;;;;;;;;3.55;100.00;100679.62;1734309;80;20126;-81
2021/11/23 12:34:13;;;;;;;;;;;;;;;3.62;100.00;100664.39;1762131;80;20134;-81
2021/11/23 12:36:50;;;;;;;;;;;;;;;3.63;100.00;100669.52;1758058;80;20955;-81
2021/11/23 12:39:28;;;;;;;;;;;;;;;3.63;100.00;100673.91;1762452;80;20221;-83
2021/11/23 12:42:03;;;;;;;;;;;;;;;3.70;100.00;100673.41;1755523;80;21188;-79